KHZD

Details ICAO KHZD
Name CARROLL CO
Region United States
Timezone America/Chicago (UTC-5.0)
Plans Departing 1
Arriving 5
Stats Elevation 496 ft / 151 m (AMSL)
Location 36.090631° -88.462945°
Runways 1
Magnetic Variation 2.584° W
Sunrise 2018-05-25 10:42:43 UTC / 2018-05-25 05:42:43 Local
Sunset 2018-05-26 01:01:47 UTC / 2018-05-25 20:01:47 Local
Advertisement - Login to hide

Runways

ID Width Length Bearing (true) Bearing (mag) Surface Threshold Offset Overrun Length
01 100 ft / 30 m 5,512 ft / 1,680 m 12.14° 14.72° Asphalt 0 ft / 0 m 0 ft / 0 m
19 100 ft / 30 m 5,512 ft / 1,680 m 192.15° 194.73° Asphalt 0 ft / 0 m 0 ft / 0 m

Map

Weather


0- 5 10 15 20 25 30 35+ Temperature / ° C

Clouds and Precipitation
Forecast for 2018-05-25 12:00 UTC. Updated 25 minutes ago

Ground ~20,000 ft ~40,000 ft Winds

METAR

KHZD 250935Z AUTO 00000KT 9SM SCT050 BKN055 19/19 A3000 RMK A01

TAF

Not found

Frequencies

Recorded 133.27 MHz AWOS 3
Unicom 122.80 MHz CTAF/UNICOM
Warning: Do not use this data for real-world aviation or navigation. No guarantee of current accuracy is given.